<?xml version="1.0" encoding="UTF-8" standalone="no" ?>
<gpx xmlns="http://www.topografix.com/GPX/1/1" xmlns:xsi="http://www.w3.org/2001/XMLSchema-instance" xsi:schemaLocation="http://www.topografix.com/GPX/1/1 http://www.topografix.com/GPX/1/1/gpx.xsd" version="1.1" creator="VisuGPX - https://www.visugpx.com">
  <metadata>
    <name>GR441 Kevin</name>
  </metadata>
  <wpt lat="45.86793" lon="2.95388">
    <ele>900.5</ele>
    <name><![CDATA[Bivy 1]]></name>
    <type><![CDATA[camping]]></type>
  </wpt>
  <wpt lat="45.77933" lon="2.86085">
    <ele>758</ele>
    <name><![CDATA[Bivy 2]]></name>
    <desc><![CDATA[Bivouac 2]]></desc>
    <type><![CDATA[camping]]></type>
  </wpt>
  <wpt lat="45.64793" lon="2.85852">
    <ele>1207.1</ele>
    <name><![CDATA[Bivy 3]]></name>
    <type><![CDATA[camping]]></type>
  </wpt>
  <wpt lat="45.71022" lon="2.94378">
    <ele>1043.6</ele>
    <name><![CDATA[Bivy 4]]></name>
    <type><![CDATA[camping]]></type>
  </wpt>
  <wpt lat="45.7932" lon="2.9464">
    <ele>1028.1</ele>
    <name><![CDATA[Bivy 5]]></name>
    <type><![CDATA[camping]]></type>
  </wpt>
  <wpt lat="45.86932" lon="2.98248">
    <ele>807</ele>
    <name><![CDATA[Bivy 6a]]></name>
    <type><![CDATA[camping]]></type>
  </wpt>
  <wpt lat="45.88162" lon="3.03012">
    <ele>659.4</ele>
    <name><![CDATA[Bivy 6b]]></name>
    <type><![CDATA[camping]]></type>
  </wpt>
  <wpt lat="45.90557" lon="2.99635">
    <ele>720.2</ele>
    <name><![CDATA[Départ / Arrivée1]]></name>
    <type><![CDATA[user]]></type>
  </wpt>
  <trk>
    <name><![CDATA[J7]]></name>
    <extensions>
      <line xmlns="http://www.topografix.com/GPX/gpx_style/0/2">
        <color>aa7941</color>
        <width>4</width>
      </line>
    </extensions>
    <trkseg>
      <trkpt lat="45.88176" lon="3.03041">
        <ele>667.067392</ele>
        <time>2022-03-05T15:27:21Z</time>
      </trkpt>
      <trkpt lat="45.88137" lon="3.02952">
        <ele>672.226904</ele>
        <time>2022-03-05T15:28:50Z</time>
      </trkpt>
      <trkpt lat="45.88118" lon="3.02807">
        <ele>679.37784</ele>
        <time>2022-03-05T15:30:56Z</time>
      </trkpt>
      <trkpt lat="45.88128" lon="3.02792">
        <ele>680.42988</ele>
        <time>2022-03-05T15:31:15Z</time>
      </trkpt>
      <trkpt lat="45.88142" lon="3.02782">
        <ele>682.269955</ele>
        <time>2022-03-05T15:31:35Z</time>
      </trkpt>
      <trkpt lat="45.88227" lon="3.02761">
        <ele>692.041065</ele>
        <time>2022-03-05T15:33:33Z</time>
      </trkpt>
      <trkpt lat="45.88253" lon="3.02764">
        <ele>694.981964</ele>
        <time>2022-03-05T15:34:11Z</time>
      </trkpt>
      <trkpt lat="45.88299" lon="3.02748">
        <ele>700.263195</ele>
        <time>2022-03-05T15:35:27Z</time>
      </trkpt>
      <trkpt lat="45.88306" lon="3.02724">
        <ele>702.243768</ele>
        <time>2022-03-05T15:35:51Z</time>
      </trkpt>
      <trkpt lat="45.88296" lon="3.02699">
        <ele>704.363277</ele>
        <time>2022-03-05T15:36:23Z</time>
      </trkpt>
      <trkpt lat="45.8825" lon="3.02625">
        <ele>711.946007</ele>
        <time>2022-03-05T15:38:00Z</time>
      </trkpt>
      <trkpt lat="45.88232" lon="3.02581">
        <ele>715.836351</ele>
        <time>2022-03-05T15:38:49Z</time>
      </trkpt>
      <trkpt lat="45.88231" lon="3.02562">
        <ele>717.270839</ele>
        <time>2022-03-05T15:39:06Z</time>
      </trkpt>
      <trkpt lat="45.88277" lon="3.02467">
        <ele>723.021724</ele>
        <time>2022-03-05T15:40:48Z</time>
      </trkpt>
      <trkpt lat="45.88297" lon="3.02441">
        <ele>724.422269</ele>
        <time>2022-03-05T15:41:19Z</time>
      </trkpt>
      <trkpt lat="45.88402" lon="3.02392">
        <ele>730.021511</ele>
        <time>2022-03-05T15:43:23Z</time>
      </trkpt>
      <trkpt lat="45.8841" lon="3.02379">
        <ele>730.4905</ele>
        <time>2022-03-05T15:43:38Z</time>
      </trkpt>
      <trkpt lat="45.88423" lon="3.02372">
        <ele>730.993849</ele>
        <time>2022-03-05T15:43:53Z</time>
      </trkpt>
      <trkpt lat="45.88571" lon="3.0236">
        <ele>736.269457</ele>
        <time>2022-03-05T15:46:42Z</time>
      </trkpt>
      <trkpt lat="45.88633" lon="3.0222">
        <ele>736.820635</ele>
        <time>2022-03-05T15:48:43Z</time>
      </trkpt>
      <trkpt lat="45.88839" lon="3.02147">
        <ele>733.829759</ele>
        <time>2022-03-05T15:52:26Z</time>
      </trkpt>
      <trkpt lat="45.88942" lon="3.02125">
        <ele>733.223308</ele>
        <time>2022-03-05T15:54:14Z</time>
      </trkpt>
      <trkpt lat="45.89059" lon="3.02016">
        <ele>734.21498</ele>
        <time>2022-03-05T15:56:38Z</time>
      </trkpt>
      <trkpt lat="45.89061" lon="3.02015">
        <ele>734.272614</ele>
        <time>2022-03-05T15:56:41Z</time>
      </trkpt>
      <trkpt lat="45.89179" lon="3.01947">
        <ele>737.86243</ele>
        <time>2022-03-05T15:59:04Z</time>
      </trkpt>
      <trkpt lat="45.89183" lon="3.01944">
        <ele>737.990776</ele>
        <time>2022-03-05T15:59:09Z</time>
      </trkpt>
      <trkpt lat="45.89183" lon="3.01917">
        <ele>738.490667</ele>
        <time>2022-03-05T15:59:30Z</time>
      </trkpt>
      <trkpt lat="45.89179" lon="3.01893">
        <ele>738.941885</ele>
        <time>2022-03-05T15:59:50Z</time>
      </trkpt>
      <trkpt lat="45.89185" lon="3.01778">
        <ele>740.977596</ele>
        <time>2022-03-05T16:01:17Z</time>
      </trkpt>
      <trkpt lat="45.89182" lon="3.01742">
        <ele>741.628709</ele>
        <time>2022-03-05T16:01:45Z</time>
      </trkpt>
      <trkpt lat="45.89153" lon="3.01601">
        <ele>743.863326</ele>
        <time>2022-03-05T16:03:34Z</time>
      </trkpt>
      <trkpt lat="45.89144" lon="3.0148">
        <ele>745.459064</ele>
        <time>2022-03-05T16:05:04Z</time>
      </trkpt>
      <trkpt lat="45.8911" lon="3.01392">
        <ele>746.888044</ele>
        <time>2022-03-05T16:06:19Z</time>
      </trkpt>
      <trkpt lat="45.89127" lon="3.01371">
        <ele>747.392393</ele>
        <time>2022-03-05T16:06:43Z</time>
      </trkpt>
      <trkpt lat="45.89183" lon="3.01312">
        <ele>748.975094</ele>
        <time>2022-03-05T16:07:58Z</time>
      </trkpt>
      <trkpt lat="45.89204" lon="3.01282">
        <ele>749.636122</ele>
        <time>2022-03-05T16:08:29Z</time>
      </trkpt>
      <trkpt lat="45.89232" lon="3.01214">
        <ele>751.024079</ele>
        <time>2022-03-05T16:09:30Z</time>
      </trkpt>
      <trkpt lat="45.89285" lon="3.01131">
        <ele>753.239198</ele>
        <time>2022-03-05T16:10:56Z</time>
      </trkpt>
      <trkpt lat="45.89407" lon="3.00864">
        <ele>759.71057</ele>
        <time>2022-03-05T16:15:01Z</time>
      </trkpt>
      <trkpt lat="45.89479" lon="3.00758">
        <ele>762.986906</ele>
        <time>2022-03-05T16:16:56Z</time>
      </trkpt>
      <trkpt lat="45.89504" lon="3.00728">
        <ele>764.053831</ele>
        <time>2022-03-05T16:17:33Z</time>
      </trkpt>
      <trkpt lat="45.89568" lon="3.0068">
        <ele>766.435825</ele>
        <time>2022-03-05T16:18:54Z</time>
      </trkpt>
      <trkpt lat="45.89596" lon="3.00649">
        <ele>767.232072</ele>
        <time>2022-03-05T16:19:33Z</time>
      </trkpt>
      <trkpt lat="45.89642" lon="3.00529">
        <ele>769.274219</ele>
        <time>2022-03-05T16:21:17Z</time>
      </trkpt>
      <trkpt lat="45.89686" lon="3.00409">
        <ele>770.086115</ele>
        <time>2022-03-05T16:22:56Z</time>
      </trkpt>
      <trkpt lat="45.89766" lon="3.00222">
        <ele>768.253653</ele>
        <time>2022-03-05T16:25:31Z</time>
      </trkpt>
      <trkpt lat="45.89795" lon="3.00184">
        <ele>766.139153</ele>
        <time>2022-03-05T16:26:14Z</time>
      </trkpt>
      <trkpt lat="45.89801" lon="3.00199">
        <ele>765.50184</ele>
        <time>2022-03-05T16:26:27Z</time>
      </trkpt>
      <trkpt lat="45.89977" lon="3.00088">
        <ele>754.256217</ele>
        <time>2022-03-05T16:30:07Z</time>
      </trkpt>
      <trkpt lat="45.90003" lon="3.00091">
        <ele>752.574695</ele>
        <time>2022-03-05T16:30:36Z</time>
      </trkpt>
      <trkpt lat="45.90047" lon="3.0012">
        <ele>749.354673</ele>
        <time>2022-03-05T16:31:32Z</time>
      </trkpt>
      <trkpt lat="45.90069" lon="3.00122">
        <ele>747.929455</ele>
        <time>2022-03-05T16:31:56Z</time>
      </trkpt>
      <trkpt lat="45.90072" lon="3.00122">
        <ele>747.73144</ele>
        <time>2022-03-05T16:31:59Z</time>
      </trkpt>
      <trkpt lat="45.90104" lon="3.00121">
        <ele>746.161621</ele>
        <time>2022-03-05T16:32:36Z</time>
      </trkpt>
      <trkpt lat="45.90289" lon="3.00082">
        <ele>737.955598</ele>
        <time>2022-03-05T16:35:58Z</time>
      </trkpt>
      <trkpt lat="45.90338" lon="3.00009">
        <ele>735.56598</ele>
        <time>2022-03-05T16:37:14Z</time>
      </trkpt>
      <trkpt lat="45.90436" lon="2.9984">
        <ele>730.789945</ele>
        <time>2022-03-05T16:39:56Z</time>
      </trkpt>
      <trkpt lat="45.90469" lon="2.99729">
        <ele>728.369307</ele>
        <time>2022-03-05T16:41:26Z</time>
      </trkpt>
      <trkpt lat="45.90513" lon="2.99631">
        <ele>727.3206</ele>
        <time>2022-03-05T16:42:51Z</time>
      </trkpt>
      <trkpt lat="45.90536" lon="2.99627">
        <ele>727.108684</ele>
        <time>2022-03-05T16:43:15Z</time>
      </trkpt>
      <trkpt lat="45.90545" lon="2.99628">
        <ele>727.027285</ele>
        <time>2022-03-05T16:43:24Z</time>
      </trkpt>
      <trkpt lat="45.90556" lon="2.99632">
        <ele>726.926617</ele>
        <time>2022-03-05T16:43:35Z</time>
      </trkpt>
      <trkpt lat="45.90557" lon="2.99636">
        <ele>726.897798</ele>
        <time>2022-03-05T16:43:38Z</time>
      </trkpt>
    </trkseg>
  </trk>
</gpx>